Time;durP1;ratioP1;P1;durP2;ratioP2;P2;SDS_P1;SDS_P2;PMS_P1;PMS_P2;Temp;Humidity;BMP_temperature;BMP_pressure;BME280_temperature;BME280_humidity;BME280_pressure;Samples;Min_cycle;Max_cycle;Signal;HPM_P1;HPM_P2
2023/05/31 00:00:27;;;;;;;27.27;24.90;;;;;;;;;;6258934;22;20011;-88
2023/05/31 00:02:53;;;;;;;20.45;18.80;;;;;;;;;;6259195;22;20469;-88
2023/05/31 00:05:19;;;;;;;23.67;21.67;;;;;;;;;;6286269;22;20026;-87
2023/05/31 00:07:45;;;;;;;29.58;27.27;;;;;;;;;;6312354;22;20388;-88
2023/05/31 00:10:11;;;;;;;26.48;24.15;;;;;;;;;;6313265;22;20019;-88
2023/05/31 00:12:37;;;;;;;23.88;21.85;;;;;;;;;;6260159;22;20007;-88
2023/05/31 00:15:03;;;;;;;26.58;24.33;;;;;;;;;;6260010;22;20011;-88
2023/05/31 00:17:32;;;;;;;20.23;18.27;;;;;;;;;;6311464;22;20053;-88
2023/05/31 00:19:58;;;;;;;25.20;23.15;;;;;;;;;;6260077;22;20041;-87
2023/05/31 00:22:24;;;;;;;18.85;17.10;;;;;;;;;;6284492;22;20485;-87
2023/05/31 00:24:50;;;;;;;19.25;17.65;;;;;;;;;;6311778;22;20018;-88
2023/05/31 00:27:16;;;;;;;21.77;20.10;;;;;;;;;;6284826;22;20068;-88
2023/05/31 00:29:42;;;;;;;22.58;20.73;;;;;;;;;;6312558;22;20011;-87
2023/05/31 00:32:08;;;;;;;25.92;23.58;;;;;;;;;;6285695;22;20014;-88
2023/05/31 00:34:34;;;;;;;23.05;21.08;;;;;;;;;;6258755;22;20067;-88
2023/05/31 00:37:00;;;;;;;21.58;19.65;;;;;;;;;;6259407;22;20011;-87
2023/05/31 00:39:26;;;;;;;29.15;26.52;;;;;;;;;;6259946;22;20068;-87
2023/05/31 00:41:52;;;;;;;28.95;26.83;;;;;;;;;;6284705;22;20011;-88
2023/05/31 00:44:18;;;;;;;26.27;24.20;;;;;;;;;;6259677;22;20019;-88
2023/05/31 00:46:44;;;;;;;24.33;21.98;;;;;;;;;;6283614;22;20019;-87
2023/05/31 00:49:10;;;;;;;29.58;27.00;;;;;;;;;;6312949;22;20011;-88
2023/05/31 00:51:37;;;;;;;24.65;22.65;;;;;;;;;;6312105;22;20011;-88
2023/05/31 00:54:03;;;;;;;26.02;23.85;;;;;;;;;;6284660;22;20034;-87
2023/05/31 00:56:29;;;;;;;21.73;19.65;;;;;;;;;;6312135;22;20082;-87
2023/05/31 00:58:56;;;;;;;21.55;19.58;;;;;;;;;;6312231;22;20015;-88
2023/05/31 01:01:27;;;;;;;23.08;20.92;;;;;;;;;;6259652;22;20015;-86
2023/05/31 01:03:57;;;;;;;27.33;25.08;;;;;;;;;;6285856;22;20015;-87
2023/05/31 01:06:23;;;;;;;22.63;20.63;;;;;;;;;;6285075;22;20033;-88
2023/05/31 01:08:50;;;;;;;22.00;19.80;;;;;;;;;;6260053;22;20019;-88
2023/05/31 01:11:27;;;;;;;29.60;27.27;;;;;;;;;;6284196;22;20008;-88
2023/05/31 01:14:02;;;;;;;26.27;24.15;;;;;;;;;;6285149;22;20007;-90
2023/05/31 01:16:42;;;;;;;27.13;24.73;;;;;;;;;;6259264;22;20015;-88
2023/05/31 01:19:15;;;;;;;27.25;25.13;;;;;;;;;;6259010;22;20011;-86
2023/05/31 01:21:51;;;;;;;20.27;17.08;;;;;;;;;;6285088;22;20015;-88
2023/05/31 01:24:31;;;;;;;28.73;26.40;;;;;;;;;;6259455;22;20014;-87
2023/05/31 01:27:00;;;;;;;20.83;16.50;;;;;;;;;;6312817;22;20015;-88
2023/05/31 01:29:27;;;;;;;20.00;18.00;;;;;;;;;;6259327;22;20015;-88
2023/05/31 01:31:55;;;;;;;20.98;18.98;;;;;;;;;;6284707;22;20091;-87
2023/05/31 01:34:22;;;;;;;20.17;18.38;;;;;;;;;;6259669;22;20020;-88
2023/05/31 01:36:47;;;;;;;21.92;19.70;;;;;;;;;;6284895;22;20515;-88
2023/05/31 01:39:14;;;;;;;21.55;19.52;;;;;;;;;;6311824;22;20011;-86
2023/05/31 01:41:41;;;;;;;20.77;18.73;;;;;;;;;;6258784;22;20070;-87
2023/05/31 01:44:08;;;;;;;26.25;24.05;;;;;;;;;;6285001;22;20011;-88
2023/05/31 01:46:34;;;;;;;28.05;25.95;;;;;;;;;;6318851;22;20030;-88
2023/05/31 01:49:01;;;;;;;20.88;18.92;;;;;;;;;;6289494;22;20046;-87
2023/05/31 01:51:28;;;;;;;20.50;18.63;;;;;;;;;;6269312;22;20011;-87
2023/05/31 01:53:54;;;;;;;23.70;21.60;;;;;;;;;;6313187;22;20034;-88
2023/05/31 01:56:21;;;;;;;17.83;16.13;;;;;;;;;;6313834;22;20019;-88
2023/05/31 01:58:50;;;;;;;22.63;20.52;;;;;;;;;;6260870;22;20058;-88
2023/05/31 02:01:17;;;;;;;18.17;16.38;;;;;;;;;;6260016;22;20007;-87
2023/05/31 02:03:44;;;;;;;24.25;22.00;;;;;;;;;;6261974;22;20026;-87
2023/05/31 02:06:13;;;;;;;18.83;16.90;;;;;;;;;;6285386;22;20480;-87
2023/05/31 02:08:40;;;;;;;21.17;19.02;;;;;;;;;;6312209;22;20078;-88
2023/05/31 02:11:06;;;;;;;18.38;16.63;;;;;;;;;;6260018;22;20012;-87
2023/05/31 02:13:33;;;;;;;19.70;17.52;;;;;;;;;;6285990;22;20007;-87
2023/05/31 02:15:59;;;;;;;24.45;22.00;;;;;;;;;;6313136;22;20011;-88
2023/05/31 02:18:29;;;;;;;24.55;21.90;;;;;;;;;;6285690;22;20019;-88
2023/05/31 02:20:55;;;;;;;19.83;17.73;;;;;;;;;;6314062;22;20050;-88
2023/05/31 02:23:22;;;;;;;19.15;17.20;;;;;;;;;;6284977;22;20102;-88
2023/05/31 02:25:48;;;;;;;21.55;19.40;;;;;;;;;;6285730;22;20018;-88
2023/05/31 02:28:14;;;;;;;19.98;17.20;;;;;;;;;;6260000;22;20011;-88
2023/05/31 02:30:41;;;;;;;21.83;17.92;;;;;;;;;;6285334;22;20234;-88
2023/05/31 02:33:07;;;;;;;21.75;19.70;;;;;;;;;;6261805;22;20039;-87
2023/05/31 02:35:33;;;;;;;18.35;16.42;;;;;;;;;;6285474;22;20033;-87
2023/05/31 02:37:59;;;;;;;27.88;25.55;;;;;;;;;;6312936;22;20011;-88
2023/05/31 02:40:26;;;;;;;27.02;24.73;;;;;;;;;;6314135;22;20019;-88
2023/05/31 02:42:52;;;;;;;21.40;19.63;;;;;;;;;;6286528;22;20446;-87
2023/05/31 02:45:18;;;;;;;24.33;21.95;;;;;;;;;;6286447;22;20022;-87
2023/05/31 02:47:44;;;;;;;19.70;16.67;;;;;;;;;;6259938;22;20177;-86
2023/05/31 02:50:11;;;;;;;23.40;21.25;;;;;;;;;;6286444;22;20011;-87
2023/05/31 02:52:37;;;;;;;18.90;16.20;;;;;;;;;;6260606;22;20016;-88
2023/05/31 02:55:04;;;;;;;22.13;20.17;;;;;;;;;;6260400;22;20015;-88
2023/05/31 02:57:30;;;;;;;23.30;21.10;;;;;;;;;;6285812;22;20078;-87
2023/05/31 02:59:58;;;;;;;19.88;17.45;;;;;;;;;;6286583;22;20372;-88
2023/05/31 03:02:24;;;;;;;18.88;16.95;;;;;;;;;;6313917;22;20037;-89
2023/05/31 03:04:50;;;;;;;17.83;16.10;;;;;;;;;;6286365;22;20108;-88
2023/05/31 03:07:17;;;;;;;20.65;17.60;;;;;;;;;;6260817;22;20098;-88
2023/05/31 03:09:43;;;;;;;19.52;17.00;;;;;;;;;;6285874;22;20053;-88
2023/05/31 03:12:10;;;;;;;18.90;17.20;;;;;;;;;;6313029;22;20034;-87
2023/05/31 03:14:36;;;;;;;23.77;21.58;;;;;;;;;;6260762;22;20069;-87
2023/05/31 03:17:03;;;;;;;19.33;17.45;;;;;;;;;;6261006;22;20011;-88
2023/05/31 03:19:31;;;;;;;28.50;25.63;;;;;;;;;;6286355;22;20045;-87
2023/05/31 03:21:57;;;;;;;25.00;22.67;;;;;;;;;;6314067;22;20125;-87
2023/05/31 03:24:23;;;;;;;18.90;17.33;;;;;;;;;;6260628;22;20073;-88
2023/05/31 03:26:49;;;;;;;19.10;17.27;;;;;;;;;;6285539;22;20011;-88
2023/05/31 03:29:15;;;;;;;19.83;17.55;;;;;;;;;;6314320;22;20468;-87
2023/05/31 03:31:41;;;;;;;16.92;15.02;;;;;;;;;;6285628;22;20307;-87
2023/05/31 03:34:07;;;;;;;25.27;20.38;;;;;;;;;;6285601;22;20021;-88
2023/05/31 03:36:33;;;;;;;20.13;17.17;;;;;;;;;;6285847;22;20018;-89
2023/05/31 03:38:59;;;;;;;18.60;16.48;;;;;;;;;;6285458;22;20446;-88
2023/05/31 03:41:25;;;;;;;23.42;20.90;;;;;;;;;;6286508;22;20012;-88
2023/05/31 03:43:51;;;;;;;21.17;18.17;;;;;;;;;;6260088;22;20162;-87
2023/05/31 03:46:18;;;;;;;22.30;18.95;;;;;;;;;;6285507;22;20015;-87
2023/05/31 03:48:44;;;;;;;22.95;20.83;;;;;;;;;;6311625;22;20037;-88
2023/05/31 03:51:10;;;;;;;22.88;20.17;;;;;;;;;;6260115;22;20015;-88
2023/05/31 03:53:36;;;;;;;19.20;17.20;;;;;;;;;;6260679;22;20398;-87
2023/05/31 03:56:02;;;;;;;22.75;17.30;;;;;;;;;;6264792;22;20085;-88
2023/05/31 03:58:28;;;;;;;24.25;21.77;;;;;;;;;;6290090;22;20082;-88
2023/05/31 04:00:54;;;;;;;20.58;18.67;;;;;;;;;;6259377;22;20011;-88
2023/05/31 04:03:21;;;;;;;17.58;15.70;;;;;;;;;;6285375;22;20066;-88
2023/05/31 04:05:47;;;;;;;20.17;18.02;;;;;;;;;;6285684;22;20091;-89
2023/05/31 04:08:13;;;;;;;24.02;20.80;;;;;;;;;;6284653;22;20201;-88
2023/05/31 04:10:40;;;;;;;17.45;15.65;;;;;;;;;;6258825;22;20090;-87
2023/05/31 04:13:06;;;;;;;22.88;20.10;;;;;;;;;;6312288;22;20114;-86
2023/05/31 04:15:32;;;;;;;22.42;20.23;;;;;;;;;;6283908;22;20043;-87
2023/05/31 04:17:58;;;;;;;23.48;21.17;;;;;;;;;;6312073;22;20035;-87
2023/05/31 04:20:24;;;;;;;24.92;22.65;;;;;;;;;;6312706;22;20026;-88
2023/05/31 04:22:52;;;;;;;24.73;22.15;;;;;;;;;;6311973;22;20059;-88
2023/05/31 04:25:18;;;;;;;22.70;20.38;;;;;;;;;;6283351;22;20011;-86
2023/05/31 04:27:44;;;;;;;25.45;23.00;;;;;;;;;;6313700;22;20094;-88
2023/05/31 04:30:10;;;;;;;21.05;18.92;;;;;;;;;;6311779;22;20065;-86
2023/05/31 04:32:37;;;;;;;24.70;22.27;;;;;;;;;;6256684;22;20007;-84
2023/05/31 04:35:04;;;;;;;25.42;23.02;;;;;;;;;;6256954;22;20014;-85
2023/05/31 04:37:30;;;;;;;30.05;24.20;;;;;;;;;;6257128;22;20090;-86
2023/05/31 04:39:56;;;;;;;28.35;25.30;;;;;;;;;;6282655;22;20101;-86
2023/05/31 04:42:26;;;;;;;30.80;27.58;;;;;;;;;;6284781;22;20015;-86
2023/05/31 04:44:58;;;;;;;32.33;29.23;;;;;;;;;;6283582;22;20015;-86
2023/05/31 04:47:28;;;;;;;31.02;27.88;;;;;;;;;;6283219;22;20506;-86
2023/05/31 04:49:56;;;;;;;27.80;24.02;;;;;;;;;;6282101;22;20116;-87
2023/05/31 04:52:26;;;;;;;30.55;25.38;;;;;;;;;;6252027;22;20068;-86
2023/05/31 04:54:52;;;;;;;30.67;23.98;;;;;;;;;;6280790;22;20011;-86
2023/05/31 04:57:18;;;;;;;29.27;26.20;;;;;;;;;;6280389;22;20023;-86
2023/05/31 04:59:44;;;;;;;35.13;25.25;;;;;;;;;;6277758;22;20030;-86
2023/05/31 05:02:10;;;;;;;31.75;24.40;;;;;;;;;;6277823;22;20528;-86
2023/05/31 05:04:36;;;;;;;26.02;23.10;;;;;;;;;;6280498;22;20063;-86
2023/05/31 05:07:02;;;;;;;28.73;21.50;;;;;;;;;;6281732;22;20027;-84
2023/05/31 05:09:28;;;;;;;26.00;18.45;;;;;;;;;;6283510;22;20063;-85
2023/05/31 05:11:56;;;;;;;31.40;22.23;;;;;;;;;;6254715;22;20015;-84
2023/05/31 05:14:22;;;;;;;27.15;20.15;;;;;;;;;;6285526;22;20303;-86
2023/05/31 05:16:48;;;;;;;22.05;13.02;;;;;;;;;;6258475;22;20068;-87
2023/05/31 05:19:14;;;;;;;23.85;10.68;;;;;;;;;;6285935;22;20012;-86
2023/05/31 05:21:40;;;;;;;18.65;11.50;;;;;;;;;;6257765;22;20016;-87
2023/05/31 05:24:06;;;;;;;14.98;8.38;;;;;;;;;;6260689;22;20039;-86
2023/05/31 05:26:33;;;;;;;17.75;9.40;;;;;;;;;;6260379;22;20016;-85
2023/05/31 05:28:59;;;;;;;20.80;13.05;;;;;;;;;;6261905;22;20067;-88
2023/05/31 05:31:26;;;;;;;16.08;14.05;;;;;;;;;;6289672;22;20016;-86
2023/05/31 05:33:52;;;;;;;15.15;11.48;;;;;;;;;;6263206;22;20011;-87
2023/05/31 05:36:18;;;;;;;16.95;8.02;;;;;;;;;;6276780;22;20377;-88
2023/05/31 05:38:44;;;;;;;17.08;12.77;;;;;;;;;;6275382;22;20012;-88
2023/05/31 05:41:12;;;;;;;30.95;28.30;;;;;;;;;;6249199;22;20047;-88
2023/05/31 05:43:38;;;;;;;56.33;52.53;;;;;;;;;;6275332;22;20065;-88
2023/05/31 05:46:05;;;;;;;67.80;63.25;;;;;;;;;;6276297;22;20020;-88
2023/05/31 05:48:31;;;;;;;112.22;105.03;;;;;;;;;;6274769;22;20012;-87
2023/05/31 05:50:57;;;;;;;535.17;497.50;;;;;;;;;;6277072;22;20016;-88
2023/05/31 05:53:23;;;;;;;949.03;865.13;;;;;;;;;;6255375;22;20047;-88
2023/05/31 05:55:51;;;;;;;1107.80;986.72;;;;;;;;;;6279665;22;20362;-84
2023/05/31 05:58:18;;;;;;;1244.55;999.90;;;;;;;;;;6277870;22;20046;-84
2023/05/31 06:00:47;;;;;;;1385.93;999.90;;;;;;;;;;6275423;22;20058;-90
2023/05/31 06:03:13;;;;;;;1617.07;999.90;;;;;;;;;;6278265;22;20015;-92
2023/05/31 06:05:40;;;;;;;1930.90;999.90;;;;;;;;;;6275481;22;20022;-88
2023/05/31 06:08:06;;;;;;;1999.90;999.90;;;;;;;;;;6276036;22;20008;-87
2023/05/31 06:10:32;;;;;;;1999.90;999.90;;;;;;;;;;6274183;22;20023;-93
2023/05/31 06:12:58;;;;;;;1999.90;999.90;;;;;;;;;;6274696;22;20087;-86
2023/05/31 06:15:24;;;;;;;1999.90;999.90;;;;;;;;;;6275280;22;20016;-84
2023/05/31 06:17:52;;;;;;;1999.90;999.90;;;;;;;;;;6273443;22;20018;-86
2023/05/31 06:20:18;;;;;;;1999.90;999.90;;;;;;;;;;6248664;22;20016;-89
2023/05/31 06:22:44;;;;;;;1999.90;999.90;;;;;;;;;;6248319;22;20022;-87
2023/05/31 06:25:12;;;;;;;1999.90;999.90;;;;;;;;;;6248669;22;20018;-88
2023/05/31 06:27:39;;;;;;;1999.90;999.90;;;;;;;;;;6248607;22;20072;-87
2023/05/31 06:30:05;;;;;;;1999.90;999.90;;;;;;;;;;6273699;22;20102;-86
2023/05/31 06:32:31;;;;;;;1999.90;999.90;;;;;;;;;;6275640;22;20385;-87
2023/05/31 06:34:57;;;;;;;1999.90;999.90;;;;;;;;;;6274490;22;20438;-86
2023/05/31 06:37:23;;;;;;;1999.90;999.90;;;;;;;;;;6248193;22;20012;-84
2023/05/31 06:39:49;;;;;;;1999.90;999.90;;;;;;;;;;6276387;22;20019;-93
2023/05/31 06:42:16;;;;;;;1999.90;999.90;;;;;;;;;;6250517;22;20003;-88
2023/05/31 06:44:42;;;;;;;1999.90;999.90;;;;;;;;;;6248866;22;20022;-83
2023/05/31 06:47:08;;;;;;;1999.90;999.90;;;;;;;;;;6274126;22;20043;-89
2023/05/31 06:49:35;;;;;;;1999.90;999.90;;;;;;;;;;6273848;22;20039;-87
2023/05/31 06:52:01;;;;;;;1999.90;999.90;;;;;;;;;;6251634;22;20091;-93
2023/05/31 06:54:28;;;;;;;1999.90;999.90;;;;;;;;;;6307761;22;20016;-89
2023/05/31 06:56:54;;;;;;;1999.90;999.90;;;;;;;;;;6278594;22;20096;-88
2023/05/31 06:59:20;;;;;;;1999.90;999.90;;;;;;;;;;6278527;22;20042;-86
2023/05/31 07:01:46;;;;;;;1999.90;999.90;;;;;;;;;;6306346;22;20458;-88
2023/05/31 07:04:12;;;;;;;1999.90;999.90;;;;;;;;;;6279417;22;20022;-88
2023/05/31 07:06:38;;;;;;;1999.90;999.90;;;;;;;;;;6253394;22;20015;-87
2023/05/31 07:09:05;;;;;;;1999.90;999.90;;;;;;;;;;6278820;22;20023;-84
2023/05/31 07:11:31;;;;;;;1999.90;999.90;;;;;;;;;;6253287;22;20015;-85
2023/05/31 07:14:01;;;;;;;1999.90;999.90;;;;;;;;;;6252013;22;20090;-85
2023/05/31 07:16:30;;;;;;;1999.90;999.90;;;;;;;;;;6252630;22;20295;-86
2023/05/31 07:18:56;;;;;;;1999.90;999.90;;;;;;;;;;6278559;22;20029;-85
2023/05/31 07:21:22;;;;;;;1999.90;999.90;;;;;;;;;;6277852;22;20011;-85
2023/05/31 07:23:49;;;;;;;1999.90;999.90;;;;;;;;;;6278097;22;20469;-87
2023/05/31 07:26:18;;;;;;;1999.90;999.90;;;;;;;;;;6278286;22;20015;-88
2023/05/31 07:28:45;;;;;;;1999.90;999.90;;;;;;;;;;6252122;22;20015;-87
2023/05/31 07:31:11;;;;;;;1999.90;999.90;;;;;;;;;;6277684;22;20026;-87
2023/05/31 07:33:37;;;;;;;1999.90;999.90;;;;;;;;;;6277498;22;20098;-87
2023/05/31 07:36:03;;;;;;;1999.90;999.90;;;;;;;;;;6305724;22;20042;-86
2023/05/31 07:38:30;;;;;;;1999.90;999.90;;;;;;;;;;6252443;22;20011;-87
2023/05/31 07:40:56;;;;;;;1999.90;999.90;;;;;;;;;;6252402;22;20042;-87
2023/05/31 07:43:23;;;;;;;1999.90;999.90;;;;;;;;;;6305111;22;20022;-87
2023/05/31 07:45:49;;;;;;;1999.90;999.90;;;;;;;;;;6252204;22;20022;-87
2023/05/31 07:48:17;;;;;;;1999.90;999.90;;;;;;;;;;6252049;22;20011;-88
2023/05/31 07:50:43;;;;;;;1999.90;999.90;;;;;;;;;;6277795;22;20011;-87
2023/05/31 07:53:09;;;;;;;1999.90;999.90;;;;;;;;;;6279985;22;20398;-87
2023/05/31 07:55:35;;;;;;;1999.90;999.90;;;;;;;;;;6258288;22;20126;-86
2023/05/31 07:58:01;;;;;;;1999.90;999.90;;;;;;;;;;6311742;22;20011;-87
2023/05/31 08:00:27;;;;;;;1999.90;999.90;;;;;;;;;;6281218;22;20022;-87
2023/05/31 08:02:53;;;;;;;1999.90;999.90;;;;;;;;;;6278758;22;20015;-87
2023/05/31 08:05:19;;;;;;;1999.90;999.90;;;;;;;;;;6251706;22;20012;-87
2023/05/31 08:07:47;;;;;;;1999.90;999.90;;;;;;;;;;6277795;22;20011;-87
2023/05/31 08:10:13;;;;;;;1999.90;999.90;;;;;;;;;;6277260;22;20011;-87
2023/05/31 08:12:39;;;;;;;1999.90;999.90;;;;;;;;;;6278219;22;20015;-87
2023/05/31 08:15:05;;;;;;;1999.90;999.90;;;;;;;;;;6252327;22;20013;-87
2023/05/31 08:17:31;;;;;;;1999.90;999.90;;;;;;;;;;6252441;22;20038;-88
2023/05/31 08:19:57;;;;;;;1999.90;999.90;;;;;;;;;;6252270;22;20012;-88
2023/05/31 08:22:23;;;;;;;1999.90;999.90;;;;;;;;;;6278185;22;20225;-88
2023/05/31 08:24:50;;;;;;;1999.90;999.90;;;;;;;;;;6304794;22;20052;-87
2023/05/31 08:27:17;;;;;;;1999.90;999.90;;;;;;;;;;6278148;22;20007;-86
2023/05/31 08:29:43;;;;;;;1999.90;999.90;;;;;;;;;;6277624;22;20037;-87
2023/05/31 08:32:09;;;;;;;1999.90;999.90;;;;;;;;;;6277563;22;20018;-87
2023/05/31 08:34:35;;;;;;;1999.90;999.90;;;;;;;;;;6277571;22;20434;-87
2023/05/31 08:37:04;;;;;;;1999.90;999.90;;;;;;;;;;6277487;22;20015;-87
2023/05/31 08:39:31;;;;;;;1999.90;999.90;;;;;;;;;;6277559;22;20015;-87
2023/05/31 08:41:57;;;;;;;1999.90;999.90;;;;;;;;;;6305067;22;20015;-87
2023/05/31 08:44:24;;;;;;;1999.90;999.90;;;;;;;;;;6305200;22;20018;-88
2023/05/31 08:46:50;;;;;;;1999.90;999.90;;;;;;;;;;6277985;22;20015;-87
2023/05/31 08:49:16;;;;;;;1999.90;999.90;;;;;;;;;;6278101;22;20094;-87
2023/05/31 08:51:47;;;;;;;1999.90;999.90;;;;;;;;;;6251965;22;20012;-87
2023/05/31 08:54:14;;;;;;;1999.90;999.90;;;;;;;;;;6304087;22;20017;-88
2023/05/31 08:56:40;;;;;;;1999.90;999.90;;;;;;;;;;6277156;22;20015;-86
2023/05/31 08:59:09;;;;;;;1999.90;999.90;;;;;;;;;;6277609;22;20063;-87
2023/05/31 09:01:37;;;;;;;1999.90;999.90;;;;;;;;;;6251768;22;20061;-87
2023/05/31 09:04:05;;;;;;;1999.90;999.90;;;;;;;;;;6277203;22;20018;-87
2023/05/31 09:06:30;;;;;;;1999.90;999.90;;;;;;;;;;6251397;22;20019;-87
2023/05/31 09:08:57;;;;;;;1999.90;999.90;;;;;;;;;;6251388;22;20011;-88
2023/05/31 09:11:23;;;;;;;1999.90;999.90;;;;;;;;;;6251686;22;20046;-88
2023/05/31 09:13:49;;;;;;;1999.90;999.90;;;;;;;;;;6304975;22;20011;-86
2023/05/31 09:16:15;;;;;;;1999.90;999.90;;;;;;;;;;6277886;22;20049;-87
2023/05/31 09:18:41;;;;;;;1999.90;999.90;;;;;;;;;;6305086;22;20307;-87
2023/05/31 09:21:11;;;;;;;1999.90;999.90;;;;;;;;;;6252003;22;20019;-88
2023/05/31 09:23:37;;;;;;;1999.90;999.90;;;;;;;;;;6251224;22;20022;-87
2023/05/31 09:26:06;;;;;;;1999.90;999.90;;;;;;;;;;6277212;22;20090;-88
2023/05/31 09:28:32;;;;;;;1999.90;999.90;;;;;;;;;;6278035;22;20045;-87
2023/05/31 09:31:19;;;;;;;1999.90;999.90;;;;;;;;;;6277040;22;20094;-88
2023/05/31 09:33:50;;;;;;;1999.90;999.90;;;;;;;;;;6251133;22;20011;-87
2023/05/31 09:36:23;;;;;;;1999.90;999.90;;;;;;;;;;6277517;22;20039;-87
2023/05/31 09:38:50;;;;;;;;;;;;;;;;;;6304455;22;20450;-86
2023/05/31 09:41:17;;;;;;;1999.90;999.90;;;;;;;;;;6276831;22;19918;-87
2023/05/31 09:43:45;;;;;;;1999.90;999.90;;;;;;;;;;6277006;22;20138;-88
2023/05/31 09:46:14;;;;;;;1999.90;999.90;;;;;;;;;;6304336;22;20433;-88
2023/05/31 09:48:41;;;;;;;1999.90;999.90;;;;;;;;;;6254126;22;20076;-85
2023/05/31 09:51:08;;;;;;;1999.90;999.90;;;;;;;;;;6263858;22;20067;-83
2023/05/31 09:53:41;;;;;;;1999.90;999.90;;;;;;;;;;6289480;22;20023;-85
2023/05/31 09:56:23;;;;;;;1729.93;999.90;;;;;;;;;;6265948;22;20093;-86
2023/05/31 09:58:51;;;;;;;1687.50;999.90;;;;;;;;;;6292845;22;20016;-85
2023/05/31 10:01:17;;;;;;;1491.45;999.90;;;;;;;;;;6266720;22;20026;-85
2023/05/31 10:03:44;;;;;;;1381.50;999.90;;;;;;;;;;6287374;22;20015;-85
2023/05/31 10:06:13;;;;;;;1267.50;999.90;;;;;;;;;;6286649;22;20039;-85
2023/05/31 10:08:40;;;;;;;1299.90;999.90;;;;;;;;;;6261196;22;20493;-86
2023/05/31 10:11:06;;;;;;;1069.05;951.63;;;;;;;;;;6284950;22;20016;-85
2023/05/31 10:13:32;;;;;;;1022.13;918.80;;;;;;;;;;6286206;22;20469;-85
2023/05/31 10:16:05;;;;;;;997.85;900.08;;;;;;;;;;6289704;22;20011;-85
2023/05/31 10:18:32;;;;;;;917.72;835.45;;;;;;;;;;6286598;22;20039;-87
2023/05/31 10:21:25;;;;;;;785.90;723.20;;;;;;;;;;6286675;22;20058;-85
2023/05/31 10:23:58;;;;;;;691.95;638.70;;;;;;;;;;6282659;22;20026;-85
2023/05/31 10:26:27;;;;;;;591.38;547.45;;;;;;;;;;6264147;22;20021;-85
2023/05/31 10:28:53;;;;;;;589.80;546.08;;;;;;;;;;6263870;22;20053;-85
2023/05/31 10:31:22;;;;;;;468.08;435.90;;;;;;;;;;6317916;22;20011;-85
2023/05/31 10:33:53;;;;;;;450.50;420.33;;;;;;;;;;6264465;22;20094;-86
2023/05/31 10:36:19;;;;;;;435.77;406.52;;;;;;;;;;6316197;22;20017;-85
2023/05/31 10:39:11;;;;;;;508.50;472.40;;;;;;;;;;6262595;22;20007;-85
2023/05/31 10:41:41;;;;;;;520.00;483.13;;;;;;;;;;6286301;22;20495;-86
2023/05/31 10:44:10;;;;;;;562.17;521.17;;;;;;;;;;6260388;22;20011;-86
2023/05/31 10:46:37;;;;;;;576.47;535.08;;;;;;;;;;6259308;22;20015;-85
2023/05/31 10:49:05;;;;;;;574.63;532.20;;;;;;;;;;6260383;22;20022;-85
2023/05/31 10:51:47;;;;;;;460.25;428.95;;;;;;;;;;6288346;22;20007;-86
2023/05/31 10:54:20;;;;;;;435.05;405.30;;;;;;;;;;6288065;22;20023;-85
2023/05/31 10:56:53;;;;;;;382.90;357.02;;;;;;;;;;6262178;22;20011;-85
2023/05/31 10:59:19;;;;;;;287.30;269.52;;;;;;;;;;6314874;22;20507;-84
2023/05/31 11:01:46;;;;;;;235.43;221.13;;;;;;;;;;6289235;22;20015;-85
2023/05/31 11:04:20;;;;;;;262.50;246.63;;;;;;;;;;6316442;22;20041;-85
2023/05/31 11:06:47;;;;;;;275.80;258.55;;;;;;;;;;6262900;22;20491;-84
2023/05/31 11:09:15;;;;;;;274.90;257.20;;;;;;;;;;6288642;22;20338;-85
2023/05/31 11:11:42;;;;;;;300.27;281.40;;;;;;;;;;6261779;22;20426;-85
2023/05/31 11:14:09;;;;;;;186.50;175.13;;;;;;;;;;6260638;22;20015;-85
2023/05/31 11:16:47;;;;;;;213.55;200.68;;;;;;;;;;6261535;22;20011;-84
2023/05/31 11:19:15;;;;;;;168.52;158.30;;;;;;;;;;6261397;22;20197;-85
2023/05/31 11:21:59;;;;;;;209.57;197.10;;;;;;;;;;6261139;22;20012;-84
2023/05/31 11:24:36;;;;;;;186.07;174.85;;;;;;;;;;6286802;22;20342;-86
2023/05/31 11:27:03;;;;;;;306.42;286.85;;;;;;;;;;6313796;22;20007;-85
2023/05/31 11:29:44;;;;;;;328.67;307.60;;;;;;;;;;6314399;22;20041;-86
2023/05/31 11:32:14;;;;;;;462.17;430.25;;;;;;;;;;6287837;22;20023;-86
2023/05/31 11:34:49;;;;;;;417.02;389.25;;;;;;;;;;6286465;22;20015;-85
2023/05/31 11:37:15;;;;;;;547.17;507.92;;;;;;;;;;6260424;22;20011;-85
2023/05/31 11:39:45;;;;;;;392.23;365.92;;;;;;;;;;6287434;22;20015;-84
2023/05/31 11:42:11;;;;;;;433.02;403.92;;;;;;;;;;6260668;22;20011;-86
2023/05/31 11:44:42;;;;;;;440.20;409.95;;;;;;;;;;6287988;22;20046;-86
2023/05/31 11:47:10;;;;;;;390.55;364.75;;;;;;;;;;6261823;22;20018;-86
2023/05/31 11:49:36;;;;;;;423.50;394.67;;;;;;;;;;6288790;22;20015;-85
2023/05/31 11:52:03;;;;;;;413.00;385.40;;;;;;;;;;6286177;22;20015;-85
2023/05/31 11:54:30;;;;;;;368.83;345.02;;;;;;;;;;6288884;22;20092;-86
2023/05/31 11:56:57;;;;;;;320.00;300.15;;;;;;;;;;6263514;22;20011;-84
2023/05/31 11:59:23;;;;;;;337.15;315.17;;;;;;;;;;6291030;22;20011;-87
2023/05/31 12:01:50;;;;;;;414.52;386.80;;;;;;;;;;6289811;22;20015;-86
2023/05/31 12:04:16;;;;;;;424.05;395.88;;;;;;;;;;6265207;22;20015;-85
2023/05/31 12:06:42;;;;;;;455.75;424.83;;;;;;;;;;6291438;22;20011;-86
2023/05/31 12:09:09;;;;;;;394.30;368.65;;;;;;;;;;6264121;22;20012;-86
2023/05/31 12:11:35;;;;;;;412.10;384.90;;;;;;;;;;6263587;22;20008;-85
2023/05/31 12:14:01;;;;;;;444.65;414.40;;;;;;;;;;6288618;22;20015;-86
2023/05/31 12:16:27;;;;;;;336.15;314.95;;;;;;;;;;6314004;22;20011;-84
2023/05/31 12:18:54;;;;;;;333.80;312.45;;;;;;;;;;6313123;22;20121;-85
2023/05/31 12:21:20;;;;;;;254.00;238.40;;;;;;;;;;6286009;22;20046;-86
2023/05/31 12:23:53;;;;;;;234.15;220.32;;;;;;;;;;6312649;22;20405;-86
2023/05/31 12:26:21;;;;;;;159.27;149.68;;;;;;;;;;6284930;22;20011;-84
2023/05/31 12:28:47;;;;;;;188.65;177.23;;;;;;;;;;6259840;22;20013;-86
2023/05/31 12:31:20;;;;;;;164.45;154.88;;;;;;;;;;6258039;22;20071;-86
2023/05/31 12:34:00;;;;;;;134.40;126.45;;;;;;;;;;6260884;22;20086;-86
2023/05/31 12:36:27;;;;;;;122.93;115.55;;;;;;;;;;6261611;22;20007;-86
2023/05/31 12:38:54;;;;;;;120.53;113.32;;;;;;;;;;6286848;22;20011;-84
2023/05/31 12:41:22;;;;;;;111.43;105.03;;;;;;;;;;6312198;22;20015;-85
2023/05/31 12:43:48;;;;;;;108.10;101.53;;;;;;;;;;6260454;22;20015;-86
2023/05/31 12:46:18;;;;;;;88.57;83.30;;;;;;;;;;6260487;22;20046;-85
2023/05/31 12:48:50;;;;;;;82.75;77.78;;;;;;;;;;6260491;22;20026;-87
2023/05/31 12:51:22;;;;;;;92.53;87.03;;;;;;;;;;6312790;22;20098;-86
2023/05/31 12:53:49;;;;;;;104.10;98.00;;;;;;;;;;6285312;22;20046;-85
2023/05/31 12:56:15;;;;;;;69.97;65.38;;;;;;;;;;6260916;22;20046;-86
2023/05/31 12:58:42;;;;;;;94.45;88.53;;;;;;;;;;6286500;22;20018;-85
2023/05/31 13:01:08;;;;;;;106.07;99.82;;;;;;;;;;6284889;22;20042;-86
2023/05/31 13:03:34;;;;;;;85.68;80.35;;;;;;;;;;6286492;22;20148;-85
2023/05/31 13:06:00;;;;;;;99.70;93.60;;;;;;;;;;6314004;22;20483;-84
2023/05/31 13:08:26;;;;;;;111.03;104.30;;;;;;;;;;6261500;22;20011;-85
2023/05/31 13:10:53;;;;;;;108.72;102.43;;;;;;;;;;6259376;22;20012;-86
2023/05/31 13:13:19;;;;;;;92.13;86.60;;;;;;;;;;6286912;22;20180;-85
2023/05/31 13:15:46;;;;;;;118.55;111.22;;;;;;;;;;6258497;22;20007;-86
2023/05/31 13:18:12;;;;;;;136.98;128.65;;;;;;;;;;6287518;22;20018;-86
2023/05/31 13:20:38;;;;;;;132.27;124.43;;;;;;;;;;6286652;22;20015;-85
2023/05/31 13:23:08;;;;;;;98.85;92.82;;;;;;;;;;6312792;22;20026;-85
2023/05/31 13:25:35;;;;;;;107.22;100.43;;;;;;;;;;6287216;22;20015;-84
2023/05/31 13:28:01;;;;;;;124.22;117.10;;;;;;;;;;6286397;22;20015;-85
2023/05/31 13:30:27;;;;;;;155.50;146.27;;;;;;;;;;6260039;22;20094;-85
2023/05/31 13:32:53;;;;;;;158.35;148.57;;;;;;;;;;6286990;22;20011;-86
2023/05/31 13:35:19;;;;;;;203.98;191.45;;;;;;;;;;6260337;22;20018;-86
2023/05/31 13:37:45;;;;;;;166.85;157.02;;;;;;;;;;6286137;22;20015;-85
2023/05/31 13:40:12;;;;;;;156.35;147.18;;;;;;;;;;6262265;22;20084;-86
2023/05/31 13:42:38;;;;;;;145.60;136.82;;;;;;;;;;6288199;22;20090;-85
2023/05/31 13:45:04;;;;;;;131.00;123.53;;;;;;;;;;6288546;22;20065;-85
2023/05/31 13:47:31;;;;;;;119.53;112.30;;;;;;;;;;6261751;22;20022;-85
2023/05/31 13:49:57;;;;;;;120.78;113.45;;;;;;;;;;6286403;22;20011;-86
2023/05/31 13:52:23;;;;;;;132.40;124.47;;;;;;;;;;6287617;22;20012;-85
2023/05/31 13:54:49;;;;;;;115.80;108.75;;;;;;;;;;6261596;22;20028;-86
2023/05/31 13:57:15;;;;;;;203.02;190.63;;;;;;;;;;6289571;22;20011;-85
2023/05/31 13:59:41;;;;;;;143.15;134.43;;;;;;;;;;6262082;22;20011;-85